createdAt,value
2018-07-19T00:00:06.295Z,2.50
2018-07-19T00:01:06.315Z,2.30
2018-07-19T00:02:06.339Z,2.40
2018-07-19T00:03:06.363Z,2.60
2018-07-19T00:04:06.384Z,2.30
2018-07-19T00:05:06.410Z,2.40
2018-07-19T00:06:06.430Z,2.30
2018-07-19T00:07:06.453Z,2.60
2018-07-19T00:08:06.531Z,2.50
2018-07-19T00:09:06.502Z,2.50
2018-07-19T00:10:06.522Z,2.70
2018-07-19T00:11:06.545Z,2.50
2018-07-19T00:12:06.569Z,2.30
2018-07-19T00:13:06.592Z,2.60
2018-07-19T00:14:06.614Z,2.60
2018-07-19T00:15:06.640Z,2.50
2018-07-19T00:16:06.662Z,2.40
2018-07-19T00:17:06.685Z,2.30
2018-07-19T00:18:06.705Z,2.50
2018-07-19T00:19:06.818Z,2.20
2018-07-19T00:20:06.752Z,2.60
2018-07-19T00:21:06.777Z,2.50
2018-07-19T00:22:06.797Z,2.30
2018-07-19T00:23:06.828Z,2.70
2018-07-19T00:24:06.845Z,2.40
2018-07-19T00:25:06.870Z,2.40
2018-07-19T00:26:06.888Z,2.40
2018-07-19T00:27:06.912Z,2.60
2018-07-19T00:28:06.938Z,2.60
2018-07-19T00:29:06.959Z,2.30
2018-07-19T00:30:06.982Z,2.40
2018-07-19T00:31:07.004Z,2.50
2018-07-19T00:32:07.029Z,2.40
2018-07-19T00:33:07.048Z,2.50
2018-07-19T00:34:07.075Z,2.70
2018-07-19T00:35:07.097Z,2.60
2018-07-19T00:36:07.132Z,2.60
2018-07-19T00:37:07.142Z,2.60
2018-07-19T00:38:07.165Z,2.40
2018-07-19T00:39:07.189Z,2.30
2018-07-19T00:40:07.209Z,2.40
2018-07-19T00:41:07.233Z,2.60
2018-07-19T00:42:07.258Z,2.40
2018-07-19T00:43:07.278Z,2.80
2018-07-19T00:44:07.303Z,2.40
2018-07-19T00:45:07.323Z,2.40
2018-07-19T00:46:07.348Z,2.20
2018-07-19T00:47:07.371Z,2.60
2018-07-19T00:48:07.395Z,2.40
2018-07-19T00:49:07.416Z,2.40
2018-07-19T00:50:07.440Z,2.40
2018-07-19T00:51:07.462Z,2.40
2018-07-19T00:52:07.486Z,2.70
2018-07-19T00:53:07.510Z,2.30
2018-07-19T00:54:07.530Z,2.60
2018-07-19T00:55:07.560Z,2.40
2018-07-19T00:56:07.577Z,2.80
2018-07-19T00:57:07.598Z,2.20
2018-07-19T00:58:07.619Z,2.50
2018-07-19T00:59:07.644Z,2.30
2018-07-19T01:00:07.665Z,2.20
2018-07-19T01:01:07.690Z,2.30
2018-07-19T01:02:07.715Z,2.40
2018-07-19T01:03:07.736Z,2.20
2018-07-19T01:04:07.759Z,2.30
2018-07-19T01:05:07.778Z,2.30
2018-07-19T01:06:07.801Z,2.50
2018-07-19T01:07:07.824Z,2.30
2018-07-19T01:08:07.848Z,2.70
2018-07-19T01:09:07.869Z,2.40
2018-07-19T01:10:07.892Z,2.40
2018-07-19T01:11:07.917Z,2.40
2018-07-19T01:13:52.050Z,2.30
2018-07-19T01:14:52.075Z,2.60
2018-07-19T01:15:52.095Z,2.30
2018-07-19T01:16:53.132Z,2.20
2018-07-19T01:17:54.765Z,2.20
2018-07-19T01:18:52.163Z,2.30
2018-07-19T01:19:52.189Z,2.50
2018-07-19T01:20:56.047Z,2.60
2018-07-19T01:27:54.992Z,2.70
2018-07-19T01:28:52.390Z,2.70
2018-07-19T01:29:52.411Z,2.30
2018-07-19T01:30:52.433Z,2.70
2018-07-19T01:31:52.455Z,2.40
2018-07-19T01:32:52.483Z,2.40
2018-07-19T01:34:52.524Z,2.60
2018-07-19T01:35:52.544Z,2.50
2018-07-19T01:36:52.567Z,2.60
2018-07-19T01:37:52.590Z,2.50
2018-07-19T01:38:52.613Z,2.70
2018-07-19T01:39:52.635Z,3.00
2018-07-19T01:40:52.659Z,3.20
2018-07-19T01:41:52.679Z,3.00
2018-07-19T01:42:52.706Z,3.00
2018-07-19T01:43:52.726Z,2.90
2018-07-19T01:44:52.748Z,2.80
2018-07-19T01:45:52.769Z,2.60
2018-07-19T01:46:52.803Z,2.80
2018-07-19T01:47:53.432Z,3.20
2018-07-19T01:48:52.840Z,2.70
2018-07-19T01:49:52.864Z,3.00
2018-07-19T01:50:52.881Z,2.90
2018-07-19T01:51:52.903Z,2.80
2018-07-19T01:52:52.927Z,2.70
2018-07-19T01:53:52.951Z,3.30
2018-07-19T01:54:52.973Z,2.70
2018-07-19T01:55:52.993Z,2.60
2018-07-19T01:56:53.023Z,2.50
2018-07-19T01:57:53.042Z,2.80
2018-07-19T01:58:53.063Z,2.80
2018-07-19T01:59:53.081Z,2.70
2018-07-19T02:00:53.104Z,3.00
2018-07-19T02:01:53.129Z,2.70
2018-07-19T02:02:53.153Z,2.90
2018-07-19T02:03:53.172Z,2.60
2018-07-19T02:04:53.193Z,3.00
2018-07-19T02:05:53.218Z,3.00
2018-07-19T02:06:53.242Z,3.10
2018-07-19T02:07:53.263Z,2.80
2018-07-19T02:08:53.286Z,2.70
2018-07-19T02:09:53.308Z,2.80
2018-07-19T02:10:53.331Z,2.90
2018-07-19T02:11:53.349Z,3.00
2018-07-19T02:12:53.371Z,2.90
2018-07-19T02:13:53.393Z,2.70
2018-07-19T02:14:53.416Z,2.90
2018-07-19T02:15:53.433Z,3.20
2018-07-19T02:16:53.455Z,2.60
2018-07-19T02:17:53.476Z,2.80
2018-07-19T02:18:53.498Z,3.10
2018-07-19T02:19:53.519Z,3.00
2018-07-19T02:20:53.543Z,3.20
2018-07-19T02:21:53.562Z,3.00
2018-07-19T02:22:53.582Z,2.80
2018-07-19T02:23:53.605Z,2.50
2018-07-19T02:24:53.624Z,2.80
2018-07-19T02:25:53.647Z,3.10
2018-07-19T02:26:53.668Z,2.80
2018-07-19T02:27:53.689Z,2.90
2018-07-19T02:28:53.709Z,2.70
2018-07-19T02:29:53.731Z,2.80
2018-07-19T02:30:53.754Z,2.80
2018-07-19T02:31:53.774Z,2.40
2018-07-19T02:32:53.792Z,2.90
2018-07-19T02:33:53.813Z,2.70
2018-07-19T02:34:53.834Z,2.80
2018-07-19T02:35:53.857Z,2.50
2018-07-19T02:36:53.877Z,2.70
2018-07-19T02:37:53.897Z,2.70
2018-07-19T02:38:53.918Z,3.00
2018-07-19T02:39:53.938Z,2.90
2018-07-19T02:40:53.962Z,2.80
2018-07-19T02:41:53.981Z,2.90
2018-07-19T02:42:54.003Z,2.80
2018-07-19T02:43:54.076Z,3.20
2018-07-19T02:44:54.043Z,3.00
2018-07-19T02:45:54.068Z,2.90
2018-07-19T02:46:54.087Z,3.00
2018-07-19T02:47:54.107Z,2.80
2018-07-19T02:48:54.128Z,2.80
2018-07-19T02:49:54.152Z,2.70
2018-07-19T02:50:54.169Z,2.50
2018-07-19T02:51:54.192Z,2.80
2018-07-19T02:52:54.214Z,2.90
2018-07-19T02:53:54.233Z,3.00
2018-07-19T02:54:54.256Z,3.20
2018-07-19T02:55:54.274Z,2.70
2018-07-19T02:56:54.295Z,2.80
2018-07-19T02:57:54.315Z,2.60
2018-07-19T02:58:54.340Z,2.60
2018-07-19T02:59:54.358Z,2.70
2018-07-19T03:00:54.381Z,2.80
2018-07-19T03:01:54.402Z,2.60
2018-07-19T03:02:54.421Z,2.40
2018-07-19T03:03:54.446Z,2.80
2018-07-19T03:04:54.462Z,3.00
2018-07-19T03:05:54.481Z,2.60
2018-07-19T03:06:54.503Z,2.50
2018-07-19T03:07:54.524Z,2.80
2018-07-19T03:08:54.547Z,3.00
2018-07-19T03:09:54.568Z,3.00
2018-07-19T03:10:54.586Z,3.20
2018-07-19T03:11:54.609Z,2.90
2018-07-19T03:12:54.628Z,3.10
2018-07-19T03:13:54.649Z,3.10
2018-07-19T03:14:54.672Z,2.70
2018-07-19T03:15:54.689Z,2.80
2018-07-19T03:16:54.714Z,2.30
2018-07-19T03:17:54.732Z,2.80
2018-07-19T03:18:54.757Z,2.70
2018-07-19T03:19:54.772Z,2.60
2018-07-19T03:20:54.795Z,2.50
2018-07-19T03:21:54.814Z,2.40
2018-07-19T03:22:54.840Z,2.70
2018-07-19T03:23:54.864Z,2.80
2018-07-19T03:24:54.877Z,2.90
2018-07-19T03:25:54.901Z,2.60
2018-07-19T03:26:54.922Z,2.90
2018-07-19T03:27:54.943Z,2.90
2018-07-19T03:28:54.960Z,3.00
2018-07-19T03:29:54.981Z,2.80
2018-07-19T03:30:55.079Z,2.70
2018-07-19T03:31:55.022Z,2.90
2018-07-19T03:32:55.044Z,2.80
2018-07-19T03:33:55.067Z,2.80
2018-07-19T03:34:55.088Z,2.70
2018-07-19T03:35:55.106Z,2.50
2018-07-19T03:36:55.131Z,2.30
2018-07-19T03:37:55.148Z,2.60
2018-07-19T03:38:55.169Z,2.80
2018-07-19T03:39:55.190Z,2.70
2018-07-19T03:40:55.208Z,3.00
2018-07-19T03:41:55.232Z,2.70
2018-07-19T03:42:55.250Z,2.80
2018-07-19T03:43:55.272Z,2.50
2018-07-19T03:44:55.291Z,2.70
2018-07-19T03:45:55.315Z,2.80
2018-07-19T03:46:55.333Z,2.80
2018-07-19T03:47:55.356Z,2.80
2018-07-19T03:48:55.379Z,2.50
2018-07-19T03:49:55.395Z,2.70
2018-07-19T03:50:55.419Z,2.60
2018-07-19T03:51:55.439Z,2.70
2018-07-19T03:52:55.459Z,2.90
2018-07-19T03:53:55.481Z,2.80
2018-07-19T03:54:55.502Z,3.00
2018-07-19T03:55:55.521Z,2.40
2018-07-19T03:56:55.542Z,2.60
2018-07-19T03:57:55.561Z,2.90
2018-07-19T03:58:55.583Z,2.60
2018-07-19T03:59:55.606Z,3.10
2018-07-19T04:00:55.624Z,2.50
2018-07-19T04:01:55.662Z,2.60
2018-07-19T04:02:55.665Z,3.30
2018-07-19T04:03:55.688Z,2.90
2018-07-19T04:04:55.708Z,2.80
2018-07-19T04:05:55.729Z,3.20
2018-07-19T04:06:55.748Z,2.90
2018-07-19T04:07:55.769Z,2.60
2018-07-19T04:08:55.793Z,2.70
2018-07-19T04:09:55.813Z,2.60
2018-07-19T04:10:55.833Z,2.70
2018-07-19T04:11:55.851Z,2.80
2018-07-19T04:12:55.875Z,2.80
2018-07-19T04:13:55.894Z,2.60
2018-07-19T04:14:55.918Z,3.00
2018-07-19T04:15:55.936Z,2.70
2018-07-19T04:16:55.999Z,2.90
2018-07-19T04:17:55.977Z,2.90
2018-07-19T04:18:56.003Z,2.90
2018-07-19T04:19:56.019Z,2.70
2018-07-19T04:20:56.038Z,2.90
2018-07-19T04:21:56.065Z,2.90
2018-07-19T04:22:56.083Z,2.90
2018-07-19T04:23:56.100Z,2.60
2018-07-19T04:24:56.122Z,2.90
2018-07-19T04:25:56.142Z,3.00
2018-07-19T04:26:56.165Z,2.70
2018-07-19T04:27:56.185Z,2.90
2018-07-19T04:28:56.213Z,2.80
2018-07-19T04:29:56.227Z,2.80
2018-07-19T04:30:56.249Z,2.80
2018-07-19T04:31:56.266Z,2.70
2018-07-19T04:32:56.289Z,2.30
2018-07-19T04:33:56.312Z,3.00
2018-07-19T04:34:56.328Z,2.80
2018-07-19T04:35:56.352Z,2.90
2018-07-19T04:36:56.372Z,2.90
2018-07-19T04:37:56.392Z,2.70
2018-07-19T04:38:56.411Z,3.20
2018-07-19T04:39:56.435Z,3.20
2018-07-19T04:40:56.451Z,2.80
2018-07-19T04:41:56.476Z,2.80
2018-07-19T04:42:56.497Z,3.00
2018-07-19T04:43:56.517Z,2.90
2018-07-19T04:44:56.538Z,3.00
2018-07-19T04:45:56.565Z,3.20
2018-07-19T04:46:56.577Z,3.40
2018-07-19T04:47:56.598Z,3.20
2018-07-19T04:48:56.618Z,3.00
2018-07-19T04:49:56.639Z,2.80
2018-07-19T04:50:56.662Z,2.80
2018-07-19T04:51:56.684Z,3.20
2018-07-19T04:52:56.704Z,8.70
2018-07-19T04:53:56.725Z,9.20
2018-07-19T04:54:56.744Z,4.10
2018-07-19T04:55:56.767Z,3.10
2018-07-19T04:56:56.787Z,2.50
2018-07-19T04:57:56.809Z,3.30
2018-07-19T04:58:56.831Z,3.00
2018-07-19T04:59:56.847Z,3.00
2018-07-19T05:00:56.870Z,3.30
2018-07-19T05:01:56.899Z,3.10
2018-07-19T05:02:56.911Z,3.20
2018-07-19T05:03:56.931Z,3.10
2018-07-19T05:04:56.953Z,2.70
2018-07-19T05:05:56.977Z,2.90
2018-07-19T05:06:56.996Z,2.80
2018-07-19T05:07:57.020Z,2.60
2018-07-19T05:08:57.037Z,3.00
2018-07-19T05:09:57.058Z,2.90
2018-07-19T05:10:57.079Z,3.30
2018-07-19T05:11:57.156Z,3.20
2018-07-19T05:12:57.181Z,2.90
2018-07-19T05:13:57.196Z,3.20
2018-07-19T05:14:57.168Z,3.40
2018-07-19T05:15:57.188Z,2.60
2018-07-19T05:16:57.207Z,3.00
2018-07-19T05:17:57.231Z,3.10
2018-07-19T05:18:57.254Z,3.00
2018-07-19T05:19:57.273Z,2.70
2018-07-19T05:20:57.298Z,2.80
2018-07-19T05:21:57.314Z,2.80
2018-07-19T05:22:57.410Z,2.60
2018-07-19T05:23:57.593Z,2.80
2018-07-19T05:24:57.465Z,2.80
2018-07-19T05:25:57.404Z,2.50
2018-07-19T05:26:57.427Z,2.90
2018-07-19T05:27:57.446Z,2.70
2018-07-19T05:28:57.466Z,2.50
2018-07-19T05:29:57.489Z,2.60
2018-07-19T05:30:57.510Z,2.80
2018-07-19T05:31:57.531Z,2.80
2018-07-19T05:32:57.556Z,2.50
2018-07-19T05:33:57.575Z,2.70
2018-07-19T05:34:57.598Z,2.80
2018-07-19T05:35:57.618Z,2.90
2018-07-19T05:36:57.641Z,2.40
2018-07-19T05:37:57.666Z,2.60
2018-07-19T05:38:57.690Z,2.30
2018-07-19T05:39:57.708Z,2.40
2018-07-19T05:40:57.731Z,2.90
2018-07-19T05:41:57.771Z,2.50
2018-07-19T05:42:57.773Z,2.60
2018-07-19T05:43:57.796Z,2.70
2018-07-19T05:44:57.820Z,2.60
2018-07-19T05:45:57.840Z,2.50
2018-07-19T05:46:57.864Z,7.70
2018-07-19T05:47:57.886Z,5.80
2018-07-19T05:48:57.909Z,3.00
2018-07-19T05:49:57.928Z,2.50
2018-07-19T05:50:57.954Z,2.80
2018-07-19T05:51:57.973Z,3.50
2018-07-19T05:52:57.996Z,2.60
2018-07-19T05:53:58.019Z,2.60
2018-07-19T05:54:58.045Z,7.50
2018-07-19T05:55:58.064Z,4.10
2018-07-19T05:56:58.089Z,2.80
2018-07-19T05:57:58.110Z,2.60
2018-07-19T05:58:58.135Z,2.50
2018-07-19T05:59:58.154Z,2.60
2018-07-19T06:00:58.182Z,2.70
2018-07-19T06:01:58.207Z,2.80
2018-07-19T06:02:58.227Z,2.50
2018-07-19T06:03:58.247Z,2.60
2018-07-19T06:04:58.272Z,2.50
2018-07-19T06:05:58.297Z,2.40
2018-07-19T06:06:58.317Z,2.50
2018-07-19T06:07:58.341Z,2.40
2018-07-19T06:08:58.362Z,2.80
2018-07-19T06:09:58.387Z,2.40
2018-07-19T06:10:58.411Z,2.50
2018-07-19T06:11:58.431Z,2.70
2018-07-19T06:12:58.454Z,2.50
2018-07-19T06:13:58.478Z,2.30
2018-07-19T06:14:58.505Z,2.40
2018-07-19T06:15:58.556Z,4.00
2018-07-19T06:16:58.548Z,3.50
2018-07-19T06:17:58.571Z,2.60
2018-07-19T06:18:58.594Z,2.80
2018-07-19T06:19:58.616Z,2.60
2018-07-19T06:20:58.642Z,2.60
2018-07-19T06:21:58.663Z,2.70
2018-07-19T06:22:58.688Z,2.30
2018-07-19T06:23:58.711Z,2.40
2018-07-19T06:24:58.735Z,2.60
2018-07-19T06:25:58.756Z,2.40
2018-07-19T06:26:58.779Z,2.60
2018-07-19T06:27:58.801Z,2.40
2018-07-19T06:28:58.828Z,2.40
2018-07-19T06:29:58.850Z,2.20
2018-07-19T06:30:58.871Z,2.20
2018-07-19T06:31:58.896Z,2.00
2018-07-19T06:32:58.918Z,2.30
2018-07-19T06:33:59.024Z,2.20
2018-07-19T06:34:58.964Z,2.20
2018-07-19T06:35:58.991Z,2.30
2018-07-19T06:36:59.014Z,2.50
2018-07-19T06:37:59.037Z,2.30
2018-07-19T06:38:59.063Z,2.40
2018-07-19T06:39:59.081Z,2.40
2018-07-19T06:40:59.105Z,2.40
2018-07-19T06:41:59.133Z,2.80
2018-07-19T06:42:59.154Z,2.40
2018-07-19T06:43:59.178Z,2.70
2018-07-19T06:44:59.208Z,2.30
2018-07-19T06:45:59.386Z,2.30
2018-07-19T06:46:59.249Z,2.60
2018-07-19T06:47:59.275Z,2.60
2018-07-19T06:48:59.301Z,2.30
2018-07-19T06:49:59.323Z,2.50
2018-07-19T06:50:59.349Z,2.40
2018-07-19T06:51:59.369Z,2.40
2018-07-19T06:52:59.397Z,2.50
2018-07-19T06:53:59.421Z,2.20
2018-07-19T06:54:59.444Z,2.40
2018-07-19T06:55:59.473Z,2.20
2018-07-19T06:56:59.491Z,2.50
2018-07-19T06:57:59.517Z,2.20
2018-07-19T06:58:59.544Z,2.50
2018-07-19T06:59:59.564Z,2.60
2018-07-19T07:00:59.593Z,2.30
2018-07-19T07:01:59.617Z,2.10
2018-07-19T07:02:59.643Z,2.20
2018-07-19T07:03:59.664Z,2.30
2018-07-19T07:04:59.690Z,2.40
2018-07-19T07:05:59.718Z,2.50
2018-07-19T07:06:59.742Z,2.20
2018-07-19T07:07:59.766Z,2.20
2018-07-19T07:08:59.873Z,2.40
2018-07-19T07:09:59.820Z,2.10
2018-07-19T07:10:59.844Z,1.90
2018-07-19T07:11:59.874Z,2.30
2018-07-19T07:12:59.893Z,2.20
2018-07-19T07:13:59.923Z,2.20
2018-07-19T07:15:00.022Z,1.90
2018-07-19T07:15:59.975Z,2.20
2018-07-19T07:16:59.998Z,2.00
2018-07-19T07:18:00.028Z,2.10
2018-07-19T07:19:00.056Z,1.90
2018-07-19T07:20:00.077Z,2.00
2018-07-19T07:21:00.104Z,2.70
2018-07-19T07:22:00.131Z,2.50
2018-07-19T07:23:00.160Z,2.60
2018-07-19T07:24:00.183Z,2.00
2018-07-19T07:25:00.280Z,2.20
2018-07-19T07:26:00.236Z,2.10
2018-07-19T07:27:00.317Z,2.30
2018-07-19T07:28:00.289Z,2.20
2018-07-19T07:29:00.318Z,2.30
2018-07-19T07:30:00.344Z,2.10
2018-07-19T07:31:00.372Z,2.10
2018-07-19T07:32:00.397Z,1.90
2018-07-19T07:33:00.425Z,2.30
2018-07-19T07:34:00.488Z,1.90
2018-07-19T07:35:00.476Z,2.00
2018-07-19T07:36:00.506Z,2.10
2018-07-19T07:37:00.531Z,1.90
2018-07-19T07:38:00.557Z,1.90
2018-07-19T07:39:00.665Z,2.10
2018-07-19T07:40:00.619Z,1.80
2018-07-19T07:41:00.642Z,1.70
2018-07-19T07:42:00.670Z,1.90
2018-07-19T07:44:00.739Z,1.90
2018-07-19T07:45:00.752Z,2.00
2018-07-19T07:46:00.778Z,1.90
2018-07-19T07:47:00.806Z,2.10
2018-07-19T07:48:00.833Z,1.80
2018-07-19T07:49:00.860Z,2.20
2018-07-19T07:50:00.887Z,3.20
2018-07-19T07:51:00.916Z,1.90
2018-07-19T07:52:01.146Z,1.90
2018-07-19T07:53:01.028Z,1.80
2018-07-19T07:54:00.997Z,2.50
2018-07-19T07:56:03.917Z,2.00
2018-07-19T07:57:01.890Z,2.00
2018-07-19T07:59:03.759Z,1.80
2018-07-19T08:00:01.769Z,1.70
2018-07-19T08:02:01.435Z,1.60
2018-07-19T08:03:01.261Z,1.80
2018-07-19T08:04:01.481Z,2.00
2018-07-19T08:05:01.310Z,1.70
2018-07-19T08:06:01.347Z,2.00
2018-07-19T08:07:01.366Z,1.70
2018-07-19T08:08:01.397Z,1.80
2018-07-19T08:09:01.781Z,1.70
2018-07-19T08:10:01.865Z,1.80
2018-07-19T08:12:01.514Z,1.80
2018-07-19T08:15:01.997Z,2.00
2018-07-19T08:16:01.628Z,1.80
2018-07-19T08:17:01.642Z,1.70
2018-07-19T08:18:01.741Z,1.80
2018-07-19T08:19:02.013Z,2.10
2018-07-19T08:20:01.760Z,1.70
2018-07-19T08:21:02.163Z,2.00
2018-07-19T08:22:04.413Z,2.00
2018-07-19T08:23:48.273Z,2.10
2018-07-19T08:24:44.398Z,2.30
2018-07-19T08:25:44.428Z,1.90
2018-07-19T08:26:44.455Z,2.00
2018-07-19T08:27:44.480Z,2.30
2018-07-19T08:28:44.511Z,2.20
2018-07-19T08:29:44.559Z,2.50
2018-07-19T08:30:44.564Z,2.00
2018-07-19T08:31:44.594Z,2.30
2018-07-19T08:32:44.622Z,2.40
2018-07-19T08:33:44.649Z,2.20
2018-07-19T08:34:44.759Z,2.20
2018-07-19T08:35:44.742Z,2.10
2018-07-19T08:36:44.868Z,1.80
2018-07-19T08:37:44.759Z,2.10
2018-07-19T08:38:44.787Z,2.10
2018-07-19T08:39:44.813Z,2.00
2018-07-19T08:40:44.840Z,2.00
2018-07-19T08:41:44.924Z,2.00
2018-07-19T08:42:44.894Z,2.40
2018-07-19T08:43:44.922Z,2.20
2018-07-19T08:44:44.951Z,2.20
2018-07-19T08:45:44.981Z,2.30
2018-07-19T08:46:45.006Z,2.10
2018-07-19T08:47:45.035Z,2.50
2018-07-19T08:48:45.065Z,2.20
2018-07-19T08:49:45.096Z,2.20
2018-07-19T08:50:45.130Z,2.30
2018-07-19T08:51:45.154Z,2.50
2018-07-19T08:52:45.226Z,2.20
2018-07-19T08:53:45.203Z,2.00
2018-07-19T08:54:45.228Z,2.30
2018-07-19T08:55:45.254Z,2.10
2018-07-19T08:56:45.319Z,2.10
2018-07-19T08:57:45.317Z,2.40
2018-07-19T08:58:45.340Z,2.50
2018-07-19T08:59:45.367Z,2.20
2018-07-19T09:00:45.395Z,2.20
2018-07-19T09:01:45.425Z,2.50
2018-07-19T09:02:45.451Z,2.30
2018-07-19T09:03:45.478Z,2.00
2018-07-19T09:04:45.505Z,2.00
2018-07-19T09:05:45.533Z,2.40
2018-07-19T09:06:45.563Z,1.80
2018-07-19T09:07:45.592Z,2.00
2018-07-19T09:08:45.682Z,1.90
2018-07-19T09:09:45.672Z,2.10
2018-07-19T09:10:45.678Z,2.10
2018-07-19T09:11:45.704Z,2.60
2018-07-19T09:12:45.736Z,2.30
2018-07-19T09:13:45.758Z,2.10
2018-07-19T09:14:45.789Z,2.10
2018-07-19T09:15:45.817Z,2.00
2018-07-19T09:16:45.846Z,2.10
2018-07-19T09:17:45.872Z,1.90
2018-07-19T09:18:45.902Z,2.20
2018-07-19T09:19:45.987Z,2.00
2018-07-19T09:20:45.956Z,2.00
2018-07-19T09:21:45.999Z,2.30
2018-07-19T09:22:46.086Z,2.00
2018-07-19T09:23:46.041Z,2.20
2018-07-19T09:24:46.069Z,2.10
2018-07-19T09:25:46.101Z,2.00
2018-07-19T09:26:46.127Z,2.00
2018-07-19T09:27:46.155Z,1.90
2018-07-19T09:28:46.186Z,1.70
2018-07-19T09:29:46.213Z,1.90
2018-07-19T09:30:46.243Z,1.80
2018-07-19T09:31:46.271Z,1.90
2018-07-19T09:32:46.300Z,2.00
2018-07-19T09:33:46.329Z,1.90
2018-07-19T09:34:46.364Z,1.70
2018-07-19T09:35:46.392Z,1.90
2018-07-19T09:36:46.415Z,2.00
2018-07-19T09:37:46.446Z,2.00
2018-07-19T09:38:46.477Z,2.00
2018-07-19T09:39:46.505Z,1.90
2018-07-19T09:40:46.542Z,1.60
2018-07-19T09:42:29.122Z,1.80
2018-07-19T09:43:29.206Z,1.70
2018-07-19T09:45:29.215Z,1.80
2018-07-19T09:46:31.870Z,1.50
2018-07-19T09:47:29.280Z,1.80
2018-07-19T09:48:29.312Z,1.60
2018-07-19T09:49:29.346Z,1.90
2018-07-19T09:50:29.385Z,1.80
2018-07-19T09:51:32.031Z,1.80
2018-07-19T09:52:29.444Z,1.70
2018-07-19T09:53:32.098Z,1.70
2018-07-19T09:56:19.595Z,1.80
2018-07-19T09:57:20.838Z,1.80
2018-07-19T09:58:18.243Z,1.90
2018-07-19T09:59:18.281Z,1.80
2018-07-19T10:00:18.310Z,1.80
2018-07-19T10:01:18.340Z,1.70
2018-07-19T10:02:18.375Z,1.50
2018-07-19T10:03:18.406Z,1.50
2018-07-19T10:04:18.438Z,1.60
2018-07-19T10:05:18.474Z,1.60
2018-07-19T10:06:18.508Z,1.70
2018-07-19T10:07:18.541Z,1.60
2018-07-19T10:08:18.569Z,2.00
2018-07-19T10:09:18.605Z,1.70
2018-07-19T10:10:18.678Z,1.60
2018-07-19T10:11:18.670Z,1.60
2018-07-19T10:12:18.703Z,1.60
2018-07-19T10:13:18.735Z,1.60
2018-07-19T10:14:18.768Z,1.70
2018-07-19T10:15:18.799Z,2.00
2018-07-19T10:16:18.831Z,1.60
2018-07-19T10:17:18.912Z,1.50
2018-07-19T10:18:18.900Z,1.90
2018-07-19T10:20:18.968Z,1.80
2018-07-19T10:21:18.997Z,1.90
2018-07-19T10:22:19.029Z,1.60
2018-07-19T10:23:19.063Z,1.80
2018-07-19T10:24:19.102Z,2.00
2018-07-19T10:25:19.126Z,2.00
2018-07-19T10:26:19.162Z,2.10
2018-07-19T10:27:19.188Z,1.90
2018-07-19T10:28:19.224Z,1.80
2018-07-19T10:29:19.256Z,1.90
2018-07-19T10:30:19.284Z,1.70
2018-07-19T10:31:19.319Z,2.10
2018-07-19T10:32:19.422Z,1.80
2018-07-19T10:33:19.384Z,1.70
2018-07-19T10:34:19.430Z,1.60
2018-07-19T10:35:19.446Z,1.70
2018-07-19T10:36:19.481Z,1.80
2018-07-19T10:37:19.513Z,2.10
2018-07-19T10:38:19.568Z,2.00
2018-07-19T10:39:19.574Z,1.70
2018-07-19T10:40:19.607Z,2.00
2018-07-19T10:41:19.641Z,1.80
2018-07-19T10:42:19.674Z,1.60
2018-07-19T10:43:19.703Z,1.80
2018-07-19T10:44:19.780Z,1.80
2018-07-19T10:45:20.031Z,1.90
2018-07-19T10:46:19.807Z,1.80
2018-07-19T10:47:19.836Z,1.90
2018-07-19T10:48:19.866Z,2.00
2018-07-19T10:49:19.901Z,1.90
2018-07-19T10:50:19.932Z,1.80
2018-07-19T10:51:19.962Z,1.80
2018-07-19T10:52:20.001Z,2.10
2018-07-19T10:53:20.029Z,2.10
2018-07-19T10:54:20.061Z,1.80
2018-07-19T10:55:20.089Z,1.80
2018-07-19T10:56:20.120Z,1.90
2018-07-19T10:57:20.172Z,1.90
2018-07-19T10:58:20.183Z,2.20
2018-07-19T10:59:20.213Z,1.90
2018-07-19T11:00:20.247Z,2.40
2018-07-19T11:01:20.278Z,2.20
2018-07-19T11:02:20.305Z,2.10
2018-07-19T11:03:20.337Z,2.10
2018-07-19T11:04:20.369Z,2.40
2018-07-19T11:05:20.400Z,1.90
2018-07-19T11:06:20.427Z,2.20
2018-07-19T11:07:20.458Z,2.40
2018-07-19T11:08:20.486Z,2.00
2018-07-19T11:09:20.561Z,2.10
2018-07-19T11:10:20.548Z,2.40
2018-07-19T11:11:20.577Z,2.20
2018-07-19T11:12:20.606Z,2.10
2018-07-19T11:13:20.636Z,2.10
2018-07-19T11:14:20.663Z,2.10
2018-07-19T11:15:20.697Z,2.10
2018-07-19T11:16:20.728Z,1.80
2018-07-19T11:17:20.753Z,1.80
2018-07-19T11:18:20.783Z,1.90
2018-07-19T11:19:20.814Z,1.90
2018-07-19T11:20:20.847Z,2.10
2018-07-19T11:21:21.024Z,2.20
2018-07-19T11:22:20.909Z,2.10
2018-07-19T11:23:20.934Z,1.90
2018-07-19T11:24:20.965Z,2.00
2018-07-19T11:25:20.999Z,1.80
2018-07-19T11:26:21.026Z,1.90
2018-07-19T11:27:21.059Z,1.80
2018-07-19T11:28:21.098Z,1.90
2018-07-19T11:29:21.119Z,1.90
2018-07-19T11:30:21.146Z,2.00
2018-07-19T11:31:21.178Z,2.10
2018-07-19T11:32:21.210Z,2.00
2018-07-19T11:33:21.241Z,2.00
2018-07-19T11:34:21.273Z,2.20
2018-07-19T11:35:21.348Z,2.10
2018-07-19T11:36:21.328Z,2.00
2018-07-19T11:37:21.362Z,2.00
2018-07-19T11:38:21.390Z,1.90
2018-07-19T11:39:21.419Z,2.00
2018-07-19T11:40:21.449Z,2.10
2018-07-19T11:41:21.479Z,2.20
2018-07-19T11:42:21.510Z,2.20
2018-07-19T11:43:21.539Z,2.20
2018-07-19T11:44:21.564Z,2.40
2018-07-19T11:46:04.153Z,2.50
2018-07-19T11:47:04.181Z,2.30
2018-07-19T11:48:04.208Z,2.20
2018-07-19T11:49:07.876Z,2.20
2018-07-19T11:50:06.893Z,2.10
2018-07-19T11:51:06.920Z,2.20
2018-07-19T11:52:06.956Z,2.10
2018-07-19T11:53:06.980Z,1.90
2018-07-19T11:54:04.384Z,2.20
2018-07-19T11:55:04.419Z,2.30
2018-07-19T11:56:04.448Z,2.00
2018-07-19T11:57:04.477Z,2.10
2018-07-19T11:58:04.504Z,2.30
2018-07-19T11:59:04.534Z,2.20
2018-07-19T12:00:04.564Z,2.20
2018-07-19T12:01:04.597Z,2.40
2018-07-19T12:02:04.624Z,2.20
2018-07-19T12:03:04.655Z,2.30
2018-07-19T12:04:04.683Z,2.50
2018-07-19T12:05:04.715Z,2.30
2018-07-19T12:06:04.743Z,2.30
2018-07-19T12:07:04.771Z,2.30
2018-07-19T12:08:04.801Z,2.10
2018-07-19T12:09:04.837Z,2.20
2018-07-19T12:10:04.864Z,2.30
2018-07-19T12:11:04.893Z,2.20
2018-07-19T12:12:04.925Z,2.10
2018-07-19T12:13:04.953Z,2.10
2018-07-19T12:14:04.981Z,2.20
2018-07-19T12:15:05.014Z,2.20
2018-07-19T12:16:05.042Z,2.30
2018-07-19T12:17:05.074Z,2.30
2018-07-19T12:18:05.138Z,2.10
2018-07-19T12:19:05.132Z,2.00
2018-07-19T12:20:05.163Z,2.20
2018-07-19T12:21:05.196Z,2.00
2018-07-19T12:22:05.226Z,2.30
2018-07-19T12:23:05.257Z,2.00
2018-07-19T12:24:05.296Z,2.20
2018-07-19T12:25:05.319Z,2.00
2018-07-19T12:26:05.351Z,1.80
2018-07-19T12:27:05.382Z,1.90
2018-07-19T12:28:05.410Z,2.10
2018-07-19T12:29:05.442Z,2.10
2018-07-19T12:30:05.488Z,2.00
2018-07-19T12:31:05.517Z,1.80
2018-07-19T12:32:05.538Z,1.80
2018-07-19T12:33:05.768Z,1.70
2018-07-19T12:34:05.600Z,1.60
2018-07-19T12:35:05.633Z,1.80
2018-07-19T12:36:05.663Z,1.80
2018-07-19T12:37:05.692Z,1.80
2018-07-19T12:38:05.727Z,1.70
2018-07-19T12:39:05.758Z,1.90
2018-07-19T12:40:05.788Z,1.90
2018-07-19T12:41:05.822Z,1.90
2018-07-19T12:42:05.853Z,1.80
2018-07-19T12:43:05.886Z,1.90
2018-07-19T12:44:05.914Z,1.90
2018-07-19T12:45:05.945Z,1.90
2018-07-19T12:46:05.977Z,1.70
2018-07-19T12:47:06.010Z,2.10
2018-07-19T12:48:06.041Z,2.30
2018-07-19T12:49:06.075Z,1.60
2018-07-19T12:50:06.106Z,1.70
2018-07-19T12:51:06.138Z,1.80
2018-07-19T12:52:06.177Z,1.90
2018-07-19T12:53:06.199Z,2.10
2018-07-19T12:54:08.859Z,1.90
2018-07-19T12:55:06.264Z,1.90
2018-07-19T12:56:08.917Z,1.80
2018-07-19T12:57:08.946Z,1.60
2018-07-19T12:58:08.975Z,2.00
2018-07-19T13:00:06.420Z,2.00
2018-07-19T13:01:06.444Z,2.00
2018-07-19T13:36:08.117Z,2.10
2018-07-19T13:42:09.294Z,2.30
2018-07-19T14:00:08.198Z,1.90
2018-07-19T14:01:08.219Z,2.20
2018-07-19T14:02:08.249Z,2.30
2018-07-19T14:03:08.279Z,2.20
2018-07-19T14:04:08.312Z,2.10
2018-07-19T14:05:08.336Z,2.10
2018-07-19T14:06:08.367Z,2.20
2018-07-19T14:07:08.398Z,2.30
2018-07-19T14:08:08.427Z,2.20
2018-07-19T14:09:08.456Z,2.20
2018-07-19T14:10:08.483Z,2.40
2018-07-19T14:11:08.512Z,2.30
2018-07-19T14:12:08.541Z,2.40
2018-07-19T14:13:08.576Z,2.10
2018-07-19T14:14:08.602Z,2.20
2018-07-19T14:15:08.632Z,2.50
2018-07-19T14:16:08.662Z,2.10
2018-07-19T14:17:08.689Z,2.10
2018-07-19T14:18:08.720Z,2.30
2018-07-19T14:19:08.747Z,2.30
2018-07-19T14:20:08.776Z,2.30
2018-07-19T14:21:08.804Z,2.50
2018-07-19T14:22:08.833Z,2.50
2018-07-19T14:23:08.866Z,2.30
2018-07-19T14:24:08.894Z,2.20
2018-07-19T14:25:08.922Z,2.00
2018-07-19T14:26:08.953Z,2.10
2018-07-19T14:27:08.979Z,2.20
2018-07-19T14:28:09.009Z,2.30
2018-07-19T14:29:09.039Z,2.20
2018-07-19T14:30:09.068Z,2.10
2018-07-19T14:31:09.100Z,2.10
2018-07-19T14:32:09.159Z,2.20
2018-07-19T14:33:09.158Z,2.10
2018-07-19T14:34:09.184Z,2.20
2018-07-19T14:35:09.213Z,2.30
2018-07-19T14:36:09.242Z,2.20
2018-07-19T14:37:09.274Z,2.10